createdAt,value
2023-04-24T00:00:46.510Z,8.20
2023-04-24T00:02:41.233Z,10.80
2023-04-24T00:04:33.429Z,10.90
2023-04-24T00:06:25.249Z,8.90
2023-04-24T00:08:16.830Z,10.70
2023-04-24T00:10:08.957Z,9.90
2023-04-24T00:12:00.881Z,10.50
2023-04-24T00:13:52.238Z,10.10
2023-04-24T00:15:43.407Z,10.60
2023-04-24T00:17:34.727Z,10.40
2023-04-24T00:19:26.361Z,11.50
2023-04-24T00:21:18.688Z,10.50
2023-04-24T00:25:01.239Z,10.30
2023-04-24T00:26:52.793Z,9.80
2023-04-24T00:28:44.125Z,11.40
2023-04-24T00:30:35.817Z,10.50
2023-04-24T00:32:27.001Z,10.10
2023-04-24T00:34:18.060Z,11.80
2023-04-24T00:36:09.445Z,10.50
2023-04-24T00:38:01.110Z,9.50
2023-04-24T00:39:52.559Z,10.00
2023-04-24T00:41:44.229Z,10.00
2023-04-24T00:43:35.898Z,9.00
2023-04-24T00:45:27.329Z,9.40
2023-04-24T00:47:19.963Z,11.50
2023-04-24T00:51:02.315Z,9.30
2023-04-24T00:52:53.927Z,9.60
2023-04-24T00:54:48.807Z,9.20
2023-04-24T00:56:41.437Z,8.50
2023-04-24T00:58:32.940Z,8.80
2023-04-24T01:00:25.154Z,9.50
2023-04-24T01:02:16.766Z,9.00
2023-04-24T01:06:00.752Z,9.30
2023-04-24T01:07:52.204Z,9.90
2023-04-24T01:09:45.228Z,9.80
2023-04-24T01:13:28.318Z,9.00
2023-04-24T01:15:19.719Z,8.90
2023-04-24T01:17:12.002Z,9.70
2023-04-24T01:19:03.827Z,10.20
2023-04-24T01:20:59.035Z,9.70
2023-04-24T01:22:50.509Z,9.90
2023-04-24T01:24:42.918Z,10.80
2023-04-24T01:26:34.852Z,10.80
2023-04-24T01:28:26.602Z,10.40
2023-04-24T01:30:18.327Z,10.30
2023-04-24T01:32:09.725Z,10.10
2023-04-24T01:34:01.320Z,10.30
2023-04-24T01:35:52.326Z,8.80
2023-04-24T01:37:43.765Z,9.50
2023-04-24T01:39:35.008Z,9.30
2023-04-24T01:41:26.821Z,8.30
2023-04-24T01:43:18.113Z,6.80
2023-04-24T01:45:12.125Z,7.00
2023-04-24T01:47:03.347Z,6.00
2023-04-24T01:48:55.787Z,7.80
2023-04-24T01:52:38.787Z,7.40
2023-04-24T01:54:29.892Z,7.90
2023-04-24T01:56:22.914Z,8.40
2023-04-24T01:58:14.663Z,9.00
2023-04-24T02:00:07.959Z,10.00
2023-04-24T02:01:59.498Z,9.20
2023-04-24T02:03:50.901Z,9.20
2023-04-24T02:05:45.800Z,9.20
2023-04-24T02:07:37.499Z,9.70
2023-04-24T02:09:29.364Z,9.40
2023-04-24T02:11:20.853Z,10.00
2023-04-24T02:13:12.145Z,9.30
2023-04-24T02:15:04.287Z,8.90
2023-04-24T02:16:55.873Z,9.80
2023-04-24T02:18:47.248Z,9.60
2023-04-24T02:20:38.948Z,8.60
2023-04-24T02:22:30.664Z,9.30
2023-04-24T02:24:22.460Z,9.60
2023-04-24T02:26:14.139Z,9.60
2023-04-24T02:28:05.630Z,8.30
2023-04-24T02:29:56.656Z,8.00
2023-04-24T02:31:47.824Z,8.90
2023-04-24T02:33:39.018Z,9.70
2023-04-24T02:35:30.844Z,8.30
2023-04-24T02:37:22.721Z,9.30
2023-04-24T02:39:15.367Z,9.40
2023-04-24T02:41:07.367Z,10.50
2023-04-24T02:42:58.682Z,8.30
2023-04-24T02:44:49.908Z,9.00
2023-04-24T02:46:43.024Z,8.80
2023-04-24T02:48:34.658Z,10.30
2023-04-24T02:50:26.256Z,9.50
2023-04-24T02:52:17.812Z,10.00
2023-04-24T02:54:10.869Z,6.50
2023-04-24T02:56:01.989Z,8.80
2023-04-24T02:57:53.476Z,8.50
2023-04-24T02:59:45.183Z,8.80
2023-04-24T03:01:36.501Z,6.90
2023-04-24T03:03:28.317Z,7.20
2023-04-24T03:05:20.097Z,8.10
2023-04-24T03:07:11.692Z,8.40
2023-04-24T03:09:04.446Z,8.70
2023-04-24T03:10:55.580Z,8.10
2023-04-24T03:12:47.392Z,8.00
2023-04-24T03:14:38.914Z,9.30
2023-04-24T03:16:30.339Z,8.50
2023-04-24T03:18:22.130Z,8.40
2023-04-24T03:20:14.162Z,8.20
2023-04-24T03:22:05.639Z,7.50
2023-04-24T03:23:58.170Z,6.60
2023-04-24T03:25:49.886Z,6.80
2023-04-24T03:27:41.167Z,6.50
2023-04-24T03:29:32.488Z,7.60
2023-04-24T03:31:24.546Z,6.20
2023-04-24T03:33:16.008Z,6.80
2023-04-24T03:35:09.363Z,6.50
2023-04-24T03:37:00.853Z,7.70
2023-04-24T03:38:52.743Z,7.20
2023-04-24T03:40:44.147Z,8.20
2023-04-24T03:42:37.843Z,7.10
2023-04-24T03:44:30.503Z,7.70
2023-04-24T03:46:21.626Z,7.70
2023-04-24T03:48:13.573Z,7.50
2023-04-24T03:50:05.747Z,8.20
2023-04-24T03:51:57.258Z,7.50
2023-04-24T03:53:48.941Z,8.00
2023-04-24T03:55:40.019Z,8.80
2023-04-24T03:57:31.861Z,9.30
2023-04-24T03:59:23.273Z,8.20
2023-04-24T04:01:17.322Z,8.50
2023-04-24T04:03:08.713Z,9.20
2023-04-24T04:05:00.349Z,8.60
2023-04-24T04:06:52.176Z,7.20
2023-04-24T04:08:43.209Z,8.70
2023-04-24T04:10:34.769Z,6.20
2023-04-24T04:12:26.500Z,6.80
2023-04-24T04:14:17.854Z,8.40
2023-04-24T04:16:10.121Z,8.10
2023-04-24T04:18:01.619Z,9.10
2023-04-24T04:19:53.063Z,8.30
2023-04-24T04:21:46.632Z,7.90
2023-04-24T04:23:38.080Z,9.10
2023-04-24T04:25:30.150Z,8.40
2023-04-24T04:27:22.522Z,7.80
2023-04-24T04:29:15.884Z,7.70
2023-04-24T04:31:09.206Z,7.40
2023-04-24T04:33:00.816Z,8.90
2023-04-24T04:34:54.368Z,8.30
2023-04-24T04:36:47.346Z,8.40
2023-04-24T04:38:39.159Z,8.70
2023-04-24T04:40:31.436Z,10.10
2023-04-24T04:42:22.872Z,9.30
2023-04-24T04:44:15.149Z,8.00
2023-04-24T04:46:07.176Z,8.50
2023-04-24T04:47:58.724Z,9.60
2023-04-24T04:49:50.296Z,8.10
2023-04-24T04:51:43.024Z,8.70
2023-04-24T04:53:34.867Z,8.10
2023-04-24T04:55:26.881Z,8.30
2023-04-24T04:57:18.379Z,8.60
2023-04-24T04:59:09.800Z,8.30
2023-04-24T05:01:01.161Z,8.00
2023-04-24T05:02:52.758Z,8.00
2023-04-24T05:04:44.318Z,6.60
2023-04-24T05:06:35.698Z,7.60
2023-04-24T05:08:27.848Z,7.80
2023-04-24T05:10:19.721Z,6.00
2023-04-24T05:12:11.427Z,6.70
2023-04-24T05:14:02.754Z,7.10
2023-04-24T05:15:54.082Z,7.50
2023-04-24T05:17:45.551Z,7.80
2023-04-24T05:19:38.991Z,7.70
2023-04-24T05:21:30.587Z,7.70
2023-04-24T05:23:22.241Z,6.60
2023-04-24T05:25:13.879Z,7.20
2023-04-24T05:27:06.274Z,6.60
2023-04-24T05:28:57.718Z,7.00
2023-04-24T05:30:48.987Z,6.50
2023-04-24T05:32:40.286Z,6.90
2023-04-24T05:34:31.759Z,6.20
2023-04-24T05:36:22.808Z,6.60
2023-04-24T05:38:15.001Z,7.60
2023-04-24T05:40:06.704Z,6.20
2023-04-24T05:41:59.264Z,7.20
2023-04-24T05:43:50.844Z,6.90
2023-04-24T05:45:42.296Z,7.30
2023-04-24T05:47:33.686Z,5.10
2023-04-24T05:49:25.473Z,5.50
2023-04-24T05:51:16.483Z,6.30
2023-04-24T05:53:08.329Z,6.80
2023-04-24T05:54:59.794Z,6.40
2023-04-24T05:56:51.931Z,6.80
2023-04-24T05:58:43.563Z,6.20
2023-04-24T06:00:35.519Z,7.00
2023-04-24T06:03:52.123Z,6.50
2023-04-24T06:05:43.993Z,6.40
2023-04-24T06:07:35.667Z,6.80
2023-04-24T06:09:27.417Z,6.20
2023-04-24T06:11:18.962Z,6.20
2023-04-24T06:13:10.822Z,5.90
2023-04-24T06:15:02.465Z,5.80
2023-04-24T06:16:54.551Z,5.30
2023-04-24T06:18:48.096Z,10.20
2023-04-24T06:20:40.678Z,7.90
2023-04-24T06:22:32.443Z,6.70
2023-04-24T06:24:28.854Z,6.00
2023-04-24T06:26:20.982Z,7.10
2023-04-24T06:28:13.732Z,6.60
2023-04-24T06:30:06.625Z,6.40
2023-04-24T06:31:58.564Z,6.10
2023-04-24T06:33:50.597Z,6.90
2023-04-24T06:35:42.339Z,7.20
2023-04-24T06:37:33.715Z,7.20
2023-04-24T06:39:25.083Z,7.50
2023-04-24T06:41:16.772Z,7.40
2023-04-24T06:43:08.403Z,7.50
2023-04-24T06:45:00.410Z,6.50
2023-04-24T06:46:52.095Z,6.10
2023-04-24T06:48:43.708Z,5.90
2023-04-24T06:50:35.434Z,6.40
2023-04-24T06:52:27.152Z,6.70
2023-04-24T06:54:19.005Z,5.40
2023-04-24T06:56:10.504Z,7.80
2023-04-24T06:58:01.693Z,5.40
2023-04-24T06:59:53.057Z,5.90
2023-04-24T07:01:44.388Z,5.60
2023-04-24T07:03:39.549Z,5.40
2023-04-24T07:05:31.253Z,5.20
2023-04-24T07:07:24.947Z,5.40
2023-04-24T07:09:19.694Z,4.50
2023-04-24T07:11:11.675Z,4.70
2023-04-24T07:13:03.064Z,5.10
2023-04-24T07:14:54.521Z,4.60
2023-04-24T07:16:47.177Z,4.40
2023-04-24T07:18:38.491Z,4.30
2023-04-24T07:20:29.916Z,5.10
2023-04-24T07:22:21.951Z,3.90
2023-04-24T07:24:13.943Z,4.90
2023-04-24T07:26:05.564Z,4.00
2023-04-24T07:27:56.853Z,4.60
2023-04-24T07:29:48.402Z,4.60
2023-04-24T07:31:39.874Z,13.50
2023-04-24T07:33:31.459Z,5.00
2023-04-24T07:35:23.035Z,3.60
2023-04-24T07:37:14.663Z,3.70
2023-04-24T07:39:07.197Z,2.60
2023-04-24T07:40:58.683Z,3.40
2023-04-24T07:42:50.358Z,3.10
2023-04-24T07:44:41.979Z,2.90
2023-04-24T07:46:33.878Z,3.30
2023-04-24T07:48:27.383Z,3.10
2023-04-24T07:50:18.837Z,2.90
2023-04-24T07:52:10.581Z,2.10
2023-04-24T07:54:02.120Z,2.40
2023-04-24T07:55:55.962Z,2.30
2023-04-24T07:57:47.601Z,6.30
2023-04-24T07:59:39.033Z,3.40
2023-04-24T08:01:30.503Z,2.80
2023-04-24T08:03:22.592Z,2.60
2023-04-24T08:05:14.539Z,3.10
2023-04-24T08:07:06.372Z,2.40
2023-04-24T08:08:57.989Z,3.20
2023-04-24T08:10:50.546Z,1.90
2023-04-24T08:12:42.542Z,2.80
2023-04-24T08:14:34.178Z,2.30
2023-04-24T08:16:25.662Z,3.10
2023-04-24T08:18:17.129Z,2.10
2023-04-24T08:20:14.466Z,3.10
2023-04-24T08:22:05.929Z,2.60
2023-04-24T08:23:57.575Z,2.00
2023-04-24T08:25:49.623Z,2.60
2023-04-24T08:27:41.026Z,2.40
2023-04-24T08:29:32.513Z,3.30
2023-04-24T08:31:26.056Z,3.40
2023-04-24T08:33:17.819Z,3.10
2023-04-24T08:35:10.595Z,2.70
2023-04-24T08:37:02.015Z,2.50
2023-04-24T08:38:54.034Z,2.30
2023-04-24T08:40:47.147Z,2.90
2023-04-24T08:42:38.404Z,2.10
2023-04-24T08:44:30.030Z,1.90
2023-04-24T08:46:21.800Z,2.60
2023-04-24T08:48:23.351Z,2.10
2023-04-24T08:50:16.323Z,2.80
2023-04-24T08:52:07.571Z,2.90
2023-04-24T08:53:59.041Z,2.50
2023-04-24T08:55:50.864Z,2.80
2023-04-24T08:57:42.715Z,2.70
2023-04-24T08:59:35.013Z,2.60
2023-04-24T09:01:27.526Z,2.70
2023-04-24T09:03:19.401Z,2.60
2023-04-24T09:05:11.609Z,3.40
2023-04-24T09:07:04.439Z,3.20
2023-04-24T09:10:51.040Z,2.90
2023-04-24T09:12:43.230Z,2.60
2023-04-24T09:14:37.226Z,3.10
2023-04-24T09:16:29.133Z,3.10
2023-04-24T09:18:20.733Z,2.10
2023-04-24T09:20:12.356Z,1.90
2023-04-24T09:22:08.091Z,3.00
2023-04-24T09:24:08.133Z,2.60
2023-04-24T09:26:01.456Z,3.00
2023-04-24T09:27:55.153Z,2.70
2023-04-24T09:29:58.942Z,3.20
2023-04-24T09:31:50.602Z,3.20
2023-04-24T09:33:54.878Z,3.50
2023-04-24T09:35:51.203Z,2.40
2023-04-24T09:37:47.290Z,3.40
2023-04-24T09:39:39.002Z,3.20
2023-04-24T09:41:30.693Z,3.60
2023-04-24T09:43:21.950Z,2.70
2023-04-24T09:45:15.410Z,3.40
2023-04-24T09:47:09.952Z,2.40
2023-04-24T09:49:10.723Z,3.00
2023-04-24T09:51:04.284Z,2.90
2023-04-24T09:53:00.730Z,2.60
2023-04-24T09:54:55.483Z,3.00
2023-04-24T09:56:48.680Z,3.40
2023-04-24T09:58:40.379Z,3.60
2023-04-24T10:00:33.823Z,2.40
2023-04-24T10:02:25.330Z,2.50
2023-04-24T10:04:18.500Z,3.10
2023-04-24T10:06:12.750Z,3.20
2023-04-24T10:08:10.420Z,3.00
2023-04-24T10:10:02.500Z,3.10
2023-04-24T10:11:55.829Z,2.90
2023-04-24T10:13:47.449Z,3.10
2023-04-24T10:15:39.593Z,3.80
2023-04-24T10:17:31.064Z,3.40
2023-04-24T10:19:23.979Z,3.10
2023-04-24T10:21:16.298Z,3.60
2023-04-24T10:23:08.206Z,3.20
2023-04-24T10:24:59.999Z,2.90
2023-04-24T10:26:51.751Z,3.30
2023-04-24T10:28:45.857Z,3.00
2023-04-24T10:30:37.529Z,2.80
2023-04-24T10:32:29.117Z,2.00
2023-04-24T10:34:21.856Z,3.30
2023-04-24T10:36:15.187Z,2.60
2023-04-24T10:38:10.328Z,3.40
2023-04-24T10:40:02.430Z,2.90
2023-04-24T10:41:54.777Z,3.10
2023-04-24T10:43:46.905Z,2.60
2023-04-24T10:45:39.546Z,3.50
2023-04-24T10:47:31.487Z,3.40
2023-04-24T10:49:32.550Z,3.50
2023-04-24T10:51:24.902Z,3.20
2023-04-24T10:53:21.463Z,2.80
2023-04-24T10:55:15.098Z,3.10
2023-04-24T10:57:22.909Z,3.50
2023-04-24T10:59:25.998Z,3.90
2023-04-24T11:01:30.012Z,2.90
2023-04-24T11:03:27.231Z,3.90
2023-04-24T11:05:20.077Z,3.50
2023-04-24T11:07:12.049Z,3.20
2023-04-24T11:09:06.557Z,4.10
2023-04-24T11:11:01.923Z,3.00
2023-04-24T11:12:53.655Z,3.20
2023-04-24T11:14:57.662Z,3.20
2023-04-24T11:16:58.456Z,3.90
2023-04-24T11:18:56.964Z,3.60
2023-04-24T11:20:48.727Z,2.90
2023-04-24T11:22:43.215Z,2.90
2023-04-24T11:24:38.276Z,3.00
2023-04-24T11:26:33.515Z,3.20
2023-04-24T11:28:25.499Z,3.10
2023-04-24T11:30:21.454Z,3.00
2023-04-24T11:32:18.361Z,3.90
2023-04-24T11:34:13.092Z,3.90
2023-04-24T11:36:04.876Z,4.00
2023-04-24T11:39:54.884Z,3.30
2023-04-24T11:44:12.594Z,2.30
2023-04-24T11:46:05.631Z,1.70
2023-04-24T11:47:58.563Z,2.70
2023-04-24T11:49:52.432Z,2.90
2023-04-24T11:51:52.034Z,2.10
2023-04-24T11:53:44.770Z,3.00
2023-04-24T11:55:38.118Z,2.40
2023-04-24T11:57:35.055Z,2.20
2023-04-24T11:59:26.485Z,2.40
2023-04-24T12:01:18.189Z,2.50
2023-04-24T12:03:12.812Z,2.90
2023-04-24T12:05:06.082Z,2.60
2023-04-24T12:07:02.554Z,3.00
2023-04-24T12:09:01.784Z,3.20
2023-04-24T12:10:56.613Z,2.70
2023-04-24T12:12:51.285Z,3.50
2023-04-24T12:14:48.562Z,4.40
2023-04-24T12:16:40.377Z,3.70
2023-04-24T12:18:32.518Z,3.70
2023-04-24T12:20:28.054Z,2.30
2023-04-24T12:22:19.654Z,2.40
2023-04-24T12:24:10.777Z,3.00
2023-04-24T12:26:06.177Z,3.20
2023-04-24T12:28:03.857Z,3.20
2023-04-24T12:29:59.771Z,3.00
2023-04-24T12:31:52.797Z,4.00
2023-04-24T12:33:44.919Z,5.10
2023-04-24T12:35:37.073Z,3.10
2023-04-24T12:37:34.289Z,3.40
2023-04-24T12:39:27.858Z,3.50
2023-04-24T12:41:20.728Z,2.30
2023-04-24T12:43:16.443Z,1.80
2023-04-24T12:45:09.276Z,1.60
2023-04-24T12:47:04.072Z,1.50
2023-04-24T12:48:55.727Z,1.20
2023-04-24T12:50:47.827Z,1.30
2023-04-24T12:52:40.165Z,1.40
2023-04-24T12:54:35.051Z,1.30
2023-04-24T12:56:27.081Z,1.40
2023-04-24T12:58:20.674Z,1.30
2023-04-24T13:00:13.163Z,1.50
2023-04-24T13:03:56.725Z,1.50
2023-04-24T13:05:48.206Z,1.70
2023-04-24T13:07:40.005Z,1.50
2023-04-24T13:09:31.768Z,1.60
2023-04-24T13:11:24.002Z,1.40
2023-04-24T13:13:15.694Z,1.40
2023-04-24T13:15:08.278Z,1.40
2023-04-24T13:18:51.697Z,1.30
2023-04-24T13:20:43.486Z,1.30
2023-04-24T13:22:34.794Z,1.40
2023-04-24T13:24:27.235Z,1.50
2023-04-24T13:26:19.086Z,1.60
2023-04-24T13:28:10.899Z,1.40
2023-04-24T13:30:02.330Z,1.60
2023-04-24T13:31:58.825Z,1.70
2023-04-24T13:33:50.529Z,1.20
2023-04-24T13:35:42.258Z,1.40
2023-04-24T13:37:34.040Z,1.50
2023-04-24T13:39:27.148Z,1.70
2023-04-24T13:41:18.630Z,1.40
2023-04-24T13:43:10.729Z,1.50
2023-04-24T13:45:05.988Z,1.50
2023-04-24T13:47:07.122Z,1.40
2023-04-24T13:48:59.551Z,1.60
2023-04-24T13:50:50.932Z,1.70
2023-04-24T13:52:42.742Z,1.80
2023-04-24T13:54:34.261Z,1.60
2023-04-24T13:56:26.945Z,1.90
2023-04-24T14:00:11.963Z,2.00
2023-04-24T14:02:03.478Z,1.30
2023-04-24T14:03:56.936Z,1.40
2023-04-24T14:05:48.819Z,2.00
2023-04-24T14:07:40.321Z,1.50
2023-04-24T14:09:32.313Z,2.00
2023-04-24T14:11:23.906Z,2.20
2023-04-24T14:13:15.905Z,3.30
2023-04-24T14:15:09.669Z,5.40
2023-04-24T14:17:01.646Z,3.40
2023-04-24T14:18:53.277Z,4.40
2023-04-24T14:20:45.232Z,2.70
2023-04-24T14:22:37.731Z,4.10
2023-04-24T14:24:29.435Z,2.10
2023-04-24T14:26:21.448Z,2.00
2023-04-24T14:28:12.587Z,2.60
2023-04-24T14:30:05.488Z,2.30
2023-04-24T14:31:57.170Z,2.70
2023-04-24T14:33:48.617Z,2.30
2023-04-24T14:35:41.069Z,11.70
2023-04-24T14:37:32.804Z,3.70
2023-04-24T14:39:24.641Z,2.60
2023-04-24T14:41:16.524Z,1.90
2023-04-24T14:43:08.087Z,2.30
2023-04-24T14:44:59.546Z,2.40
2023-04-24T14:46:51.042Z,2.20
2023-04-24T14:48:42.427Z,2.00
2023-04-24T14:50:34.126Z,2.00
2023-04-24T14:52:25.820Z,2.20
2023-04-24T14:54:17.539Z,1.90
2023-04-24T14:56:09.186Z,2.20
2023-04-24T14:58:00.350Z,2.00
2023-04-24T14:59:51.939Z,1.90
2023-04-24T15:01:43.524Z,2.80
2023-04-24T15:03:35.475Z,2.30
2023-04-24T15:05:27.579Z,2.20
2023-04-24T15:07:19.159Z,1.60
2023-04-24T15:09:10.693Z,1.90
2023-04-24T15:11:02.280Z,1.50
2023-04-24T15:12:53.895Z,2.30
2023-04-24T15:14:45.591Z,3.20
2023-04-24T15:16:36.977Z,1.80
2023-04-24T15:18:29.924Z,4.20
2023-04-24T15:20:21.344Z,3.30
2023-04-24T15:22:16.536Z,4.40
2023-04-24T15:24:07.787Z,3.40
2023-04-24T15:25:58.953Z,3.50
2023-04-24T15:27:50.288Z,3.60
2023-04-24T15:29:42.822Z,2.40
2023-04-24T15:31:34.565Z,2.00
2023-04-24T15:33:26.928Z,2.00
2023-04-24T15:35:18.633Z,1.90
2023-04-24T15:37:10.162Z,1.60
2023-04-24T15:39:05.237Z,1.50
2023-04-24T15:40:59.121Z,3.00
2023-04-24T15:42:51.141Z,2.80
2023-04-24T15:44:43.831Z,3.40
2023-04-24T15:46:37.226Z,2.90
2023-04-24T15:48:29.895Z,2.00
2023-04-24T15:50:22.692Z,2.10
2023-04-24T15:52:14.801Z,2.20
2023-04-24T15:54:06.175Z,3.80
2023-04-24T15:55:58.309Z,2.00
2023-04-24T15:57:50.046Z,1.30
2023-04-24T15:59:41.704Z,1.70
2023-04-24T16:01:33.921Z,1.90
2023-04-24T16:03:25.713Z,1.70
2023-04-24T16:05:17.666Z,1.90
2023-04-24T16:07:09.088Z,3.50
2023-04-24T16:09:02.965Z,2.90
2023-04-24T16:10:54.976Z,1.90
2023-04-24T16:12:46.574Z,3.60
2023-04-24T16:14:39.046Z,6.30
2023-04-24T16:16:30.897Z,8.60
2023-04-24T16:18:23.135Z,9.80
2023-04-24T16:20:14.906Z,18.10
2023-04-24T16:22:06.677Z,14.00
2023-04-24T16:23:58.369Z,12.60
2023-04-24T16:25:49.667Z,9.90
2023-04-24T16:29:25.511Z,8.20
2023-04-24T16:31:16.975Z,4.50
2023-04-24T16:33:09.274Z,4.00
2023-04-24T16:35:00.796Z,3.00
2023-04-24T16:36:52.682Z,2.00
2023-04-24T16:38:44.527Z,2.40
2023-04-24T16:40:36.132Z,2.90
2023-04-24T16:42:27.719Z,2.30
2023-04-24T16:44:19.370Z,2.40
2023-04-24T16:46:11.495Z,2.50
2023-04-24T16:48:04.123Z,2.90
2023-04-24T16:49:57.686Z,3.50
2023-04-24T16:51:53.784Z,4.30
2023-04-24T16:53:46.927Z,4.90
2023-04-24T16:57:52.296Z,6.90
2023-04-24T17:00:08.058Z,4.80
2023-04-24T17:11:35.614Z,7.30
2023-04-24T17:13:26.338Z,9.00
2023-04-24T17:15:16.704Z,8.50
2023-04-24T17:17:07.004Z,7.60
2023-04-24T17:18:57.226Z,8.10
2023-04-24T17:20:47.277Z,7.70
2023-04-24T17:24:48.205Z,9.00
2023-04-24T17:26:39.760Z,13.20
2023-04-24T17:28:32.510Z,14.90
2023-04-24T17:30:24.401Z,9.20
2023-04-24T17:32:17.468Z,9.70
2023-04-24T17:34:11.444Z,11.90
2023-04-24T17:36:02.736Z,12.00
2023-04-24T17:37:54.806Z,11.90
2023-04-24T17:39:49.983Z,9.80
2023-04-24T17:41:43.005Z,5.70
2023-04-24T17:43:34.998Z,7.40
2023-04-24T17:45:27.097Z,7.20
2023-04-24T17:47:20.432Z,6.80
2023-04-24T17:49:12.210Z,7.70
2023-04-24T17:51:03.925Z,7.70
2023-04-24T17:54:49.690Z,6.10
2023-04-24T17:56:41.177Z,6.50
2023-04-24T17:58:34.971Z,6.30
2023-04-24T18:00:26.363Z,5.40
2023-04-24T18:02:17.870Z,9.40
2023-04-24T18:04:09.827Z,4.40
2023-04-24T18:06:02.414Z,12.30
2023-04-24T18:07:53.755Z,7.20
2023-04-24T18:09:45.541Z,7.30
2023-04-24T18:11:36.778Z,7.70
2023-04-24T18:13:28.501Z,8.90
2023-04-24T18:15:20.457Z,7.50
2023-04-24T18:19:03.914Z,7.70
2023-04-24T18:20:55.557Z,7.80
2023-04-24T18:23:07.189Z,8.60
2023-04-24T18:24:58.618Z,8.00
2023-04-24T18:26:50.559Z,8.20
2023-04-24T18:28:41.956Z,7.20
2023-04-24T18:30:34.735Z,7.70
2023-04-24T18:32:27.178Z,8.80
2023-04-24T18:34:18.849Z,8.60
2023-04-24T18:36:09.924Z,10.60
2023-04-24T18:38:01.479Z,10.00
2023-04-24T18:39:54.252Z,11.90
2023-04-24T18:41:45.484Z,13.70
2023-04-24T18:43:36.993Z,13.90
2023-04-24T18:45:28.247Z,12.60
2023-04-24T18:47:19.696Z,11.80
2023-04-24T18:49:11.361Z,8.80
2023-04-24T18:51:02.778Z,8.80
2023-04-24T18:52:54.205Z,8.30
2023-04-24T18:54:45.518Z,9.20
2023-04-24T18:56:36.752Z,8.40
2023-04-24T18:58:28.903Z,7.80
2023-04-24T19:00:20.187Z,7.90
2023-04-24T19:02:11.937Z,7.40
2023-04-24T19:04:04.076Z,6.90
2023-04-24T19:05:55.382Z,6.80
2023-04-24T19:07:46.659Z,6.60
2023-04-24T19:09:37.897Z,6.70
2023-04-24T19:11:29.398Z,5.70
2023-04-24T19:13:21.091Z,7.30
2023-04-24T19:15:12.921Z,6.40
2023-04-24T19:17:04.669Z,7.20
2023-04-24T19:19:05.603Z,7.30
2023-04-24T19:20:59.666Z,6.80
2023-04-24T19:22:51.044Z,6.80
2023-04-24T19:24:42.394Z,6.10
2023-04-24T19:26:34.033Z,6.00
2023-04-24T19:28:26.697Z,7.50
2023-04-24T19:30:18.253Z,8.70
2023-04-24T19:32:09.613Z,11.70
2023-04-24T19:34:00.974Z,15.00
2023-04-24T19:35:52.235Z,11.90
2023-04-24T19:37:43.946Z,13.20
2023-04-24T19:39:35.310Z,12.70
2023-04-24T19:41:27.004Z,14.30
2023-04-24T19:43:19.522Z,16.90
2023-04-24T19:45:12.669Z,17.20
2023-04-24T19:47:04.250Z,16.30
2023-04-24T19:48:55.822Z,19.00
2023-04-24T19:50:47.188Z,16.60
2023-04-24T19:52:39.011Z,10.20
2023-04-24T19:54:30.671Z,10.00
2023-04-24T19:56:22.269Z,7.80
2023-04-24T19:58:13.463Z,8.00
2023-04-24T20:00:05.289Z,9.10
2023-04-24T20:01:57.045Z,9.40
2023-04-24T20:03:48.556Z,9.80
2023-04-24T20:05:42.429Z,9.90
2023-04-24T20:07:34.219Z,9.40
2023-04-24T20:09:25.863Z,9.70
2023-04-24T20:11:17.304Z,7.10
2023-04-24T20:13:09.151Z,7.00
2023-04-24T20:15:01.014Z,6.40
2023-04-24T20:16:54.286Z,6.10
2023-04-24T20:18:45.997Z,6.00
2023-04-24T20:20:38.777Z,5.00
2023-04-24T20:22:31.579Z,5.10
2023-04-24T20:24:23.289Z,4.80
2023-04-24T20:26:14.611Z,4.40
2023-04-24T20:28:06.360Z,4.40
2023-04-24T20:29:58.968Z,5.80
2023-04-24T20:31:50.535Z,4.60
2023-04-24T20:33:41.987Z,4.90
2023-04-24T20:35:33.512Z,5.00
2023-04-24T20:37:24.969Z,5.40
2023-04-24T20:39:22.425Z,5.40
2023-04-24T20:41:13.744Z,4.90
2023-04-24T20:43:05.686Z,4.80
2023-04-24T20:44:57.122Z,5.90
2023-04-24T20:46:48.575Z,5.90
2023-04-24T20:48:40.556Z,4.30
2023-04-24T20:50:33.888Z,3.80
2023-04-24T20:52:25.488Z,4.10
2023-04-24T20:54:17.050Z,4.20
2023-04-24T20:56:08.972Z,5.00
2023-04-24T20:58:00.896Z,6.50
2023-04-24T20:59:52.236Z,6.30
2023-04-24T21:01:44.839Z,6.30
2023-04-24T21:03:36.436Z,6.60
2023-04-24T21:05:27.874Z,7.80
2023-04-24T21:07:19.220Z,7.80
2023-04-24T21:09:10.647Z,5.70
2023-04-24T21:11:02.065Z,6.60
2023-04-24T21:12:53.550Z,6.60
2023-04-24T21:14:45.117Z,6.60
2023-04-24T21:16:37.311Z,6.00
2023-04-24T21:18:28.862Z,4.80
2023-04-24T21:20:20.532Z,4.10
2023-04-24T21:22:12.094Z,5.10
2023-04-24T21:24:04.486Z,3.30
2023-04-24T21:25:56.159Z,5.40
2023-04-24T21:27:49.685Z,6.30
2023-04-24T21:29:41.147Z,4.10
2023-04-24T21:31:32.420Z,5.20
2023-04-24T21:33:24.114Z,4.20
2023-04-24T21:35:15.376Z,4.00
2023-04-24T21:37:06.657Z,2.60
2023-04-24T21:38:57.841Z,3.90
2023-04-24T21:40:50.588Z,3.70
2023-04-24T21:42:42.742Z,3.20
2023-04-24T21:44:34.011Z,3.00
2023-04-24T21:46:25.519Z,2.60
2023-04-24T21:48:17.200Z,2.50
2023-04-24T21:50:09.342Z,3.40
2023-04-24T21:52:00.918Z,3.10
2023-04-24T21:53:52.414Z,3.10
2023-04-24T21:55:44.826Z,2.60
2023-04-24T21:57:36.775Z,1.90
2023-04-24T21:59:29.551Z,2.60
2023-04-24T22:03:13.385Z,2.20
2023-04-24T22:05:06.275Z,2.00
2023-04-24T22:06:58.311Z,2.80
2023-04-24T22:08:55.839Z,2.40
2023-04-24T22:10:47.714Z,1.80
2023-04-24T22:12:40.979Z,2.20
2023-04-24T22:14:33.204Z,2.00
2023-04-24T22:16:25.490Z,1.90
2023-04-24T22:18:19.077Z,2.10
2023-04-24T22:20:11.575Z,2.30
2023-04-24T22:23:55.436Z,1.80
2023-04-24T22:25:47.148Z,2.40
2023-04-24T22:27:38.446Z,1.80
2023-04-24T22:29:31.116Z,2.40
2023-04-24T22:31:23.336Z,2.10
2023-04-24T22:35:08.518Z,1.70
2023-04-24T22:37:00.291Z,2.10
2023-04-24T22:38:52.262Z,1.90
2023-04-24T22:42:36.617Z,1.80
2023-04-24T22:44:29.080Z,1.80
2023-04-24T22:46:20.730Z,1.80
2023-04-24T22:48:12.545Z,1.90
2023-04-24T22:50:05.980Z,1.90
2023-04-24T22:51:57.879Z,1.40
2023-04-24T22:53:49.860Z,1.20
2023-04-24T22:55:41.976Z,1.80
2023-04-24T22:57:33.586Z,1.60
2023-04-24T22:59:25.345Z,1.30
2023-04-24T23:01:17.605Z,1.60
2023-04-24T23:03:09.377Z,1.10
2023-04-24T23:05:01.161Z,1.60
2023-04-24T23:06:54.285Z,1.50
2023-04-24T23:08:46.954Z,1.50
2023-04-24T23:12:30.132Z,1.40
2023-04-24T23:14:22.210Z,1.50
2023-04-24T23:16:13.917Z,1.80
2023-04-24T23:18:06.335Z,1.60
2023-04-24T23:21:50.962Z,1.30
2023-04-24T23:23:43.151Z,1.50
2023-04-24T23:25:35.288Z,1.20
2023-04-24T23:27:27.282Z,0.90
2023-04-24T23:29:19.407Z,1.30
2023-04-24T23:31:11.130Z,1.30
2023-04-24T23:33:03.885Z,1.30
2023-04-24T23:34:56.381Z,1.40
2023-04-24T23:36:48.731Z,1.40
2023-04-24T23:38:49.710Z,1.30
2023-04-24T23:40:42.605Z,1.20
2023-04-24T23:42:34.230Z,1.40
2023-04-24T23:44:26.199Z,1.30
2023-04-24T23:46:18.392Z,1.10
2023-04-24T23:48:09.966Z,1.10
2023-04-24T23:50:02.120Z,1.00
2023-04-24T23:51:53.850Z,1.30
2023-04-24T23:53:45.502Z,1.00
2023-04-24T23:55:37.482Z,1.10
2023-04-24T23:57:29.138Z,1.10
2023-04-24T23:59:21.744Z,1.10
